RYR20AX EPMO-LGAV
Flight info
| Callsign | RYR20AX |
|---|---|
| Flight time | 2h 15m |
| Altitude | 38000 |
| Route | EVINA M66 BABKO/N0439F370 DCT ULPUK DCT LAHOR/N0441F390 DCT PARAK DCT IRGOR DCT IBISI DCT KRATO DCT MAKED DCT SIGFO UM749 ROPOX |
| Aircraft | B738/M-SDE2E3FGHIRWXY/LB1 |
Departure
| Time | 2026-05-07 16:10 |
|---|---|
| Airport | Warsaw Modlin Airport (EPMO) |
Arrival
| Time | 2026-05-07 18:25 |
|---|---|
| Airport | Athens Eleftherios Venizelos International Airport (LGAV) |
| Time | Latitude | Longitude | Altitude | Speed | Heading |
|---|---|---|---|---|---|
| 2026-05-07 15:20 | 52.44758 | 20.65417 | 337 ft | 0 kts | 206° |
| 2026-05-07 16:00 | 52.44770 | 20.65427 | 333 ft | 4 kts | 215° |
| 2026-05-07 16:01 | 52.44786 | 20.65445 | 335 ft | 2 kts | 181° |
| 2026-05-07 16:01 | 52.44805 | 20.65441 | 335 ft | 4 kts | 113° |
| 2026-05-07 16:01 | 52.44805 | 20.65405 | 336 ft | 4 kts | 81° |
| 2026-05-07 16:01 | 52.44804 | 20.65397 | 335 ft | 0 kts | 81° |
| 2026-05-07 16:05 | 52.44805 | 20.65404 | 337 ft | 2 kts | 81° |
| 2026-05-07 16:05 | 52.44810 | 20.65463 | 333 ft | 8 kts | 82° |
| 2026-05-07 16:05 | 52.44821 | 20.65585 | 334 ft | 12 kts | 82° |
| 2026-05-07 16:05 | 52.44832 | 20.65719 | 337 ft | 12 kts | 82° |
| 2026-05-07 16:06 | 52.44845 | 20.65856 | 335 ft | 13 kts | 81° |
| 2026-05-07 16:06 | 52.44860 | 20.66016 | 337 ft | 15 kts | 81° |
| 2026-05-07 16:06 | 52.44876 | 20.66185 | 336 ft | 15 kts | 82° |
| 2026-05-07 16:06 | 52.44891 | 20.66347 | 337 ft | 14 kts | 81° |
| 2026-05-07 16:07 | 52.44907 | 20.66516 | 337 ft | 17 kts | 81° |
| 2026-05-07 16:07 | 52.44926 | 20.66718 | 335 ft | 18 kts | 81° |
| 2026-05-07 16:07 | 52.44944 | 20.66917 | 337 ft | 16 kts | 81° |
| 2026-05-07 16:07 | 52.44964 | 20.67046 | 336 ft | 11 kts | 53° |
| 2026-05-07 16:08 | 52.45033 | 20.67074 | 333 ft | 11 kts | 354° |
| 2026-05-07 16:08 | 52.45108 | 20.67056 | 333 ft | 12 kts | 352° |
| 2026-05-07 16:08 | 52.45202 | 20.67026 | 336 ft | 15 kts | 342° |
| 2026-05-07 16:08 | 52.45250 | 20.67005 | 335 ft | 6 kts | 349° |
| 2026-05-07 16:09 | 52.45287 | 20.66974 | 337 ft | 7 kts | 294° |
| 2026-05-07 16:09 | 52.45283 | 20.66896 | 338 ft | 8 kts | 261° |
| 2026-05-07 16:09 | 52.45261 | 20.66660 | 333 ft | 50 kts | 261° |
| 2026-05-07 16:09 | 52.45170 | 20.65691 | 338 ft | 120 kts | 261° |
| 2026-05-07 16:10 | 52.45014 | 20.64028 | 442 ft | 165 kts | 263° |
| 2026-05-07 16:10 | 52.44820 | 20.62193 | 1249 ft | 164 kts | 262° |
| 2026-05-07 16:10 | 52.44622 | 20.60334 | 2059 ft | 165 kts | 263° |
| 2026-05-07 16:10 | 52.44423 | 20.58372 | 2538 ft | 188 kts | 262° |
| 2026-05-07 16:11 | 52.44218 | 20.56170 | 3114 ft | 197 kts | 262° |
| 2026-05-07 16:11 | 52.43920 | 20.53917 | 3565 ft | 209 kts | 243° |
| 2026-05-07 16:11 | 52.42915 | 20.52212 | 4095 ft | 221 kts | 208° |
| 2026-05-07 16:11 | 52.41338 | 20.51465 | 4374 ft | 251 kts | 191° |
| 2026-05-07 16:12 | 52.39548 | 20.51133 | 4979 ft | 263 kts | 187° |
| 2026-05-07 16:12 | 52.37714 | 20.50886 | 5795 ft | 265 kts | 187° |
| 2026-05-07 16:12 | 52.35865 | 20.50649 | 6629 ft | 268 kts | 187° |
| 2026-05-07 16:12 | 52.34003 | 20.50403 | 7424 ft | 269 kts | 187° |
| 2026-05-07 16:13 | 52.32132 | 20.50144 | 8230 ft | 271 kts | 188° |
| 2026-05-07 16:13 | 52.30238 | 20.49873 | 9008 ft | 274 kts | 188° |
| 2026-05-07 16:13 | 52.28329 | 20.49593 | 9784 ft | 277 kts | 188° |
| 2026-05-07 16:13 | 52.26389 | 20.49303 | 10399 ft | 286 kts | 188° |
| 2026-05-07 16:14 | 52.24324 | 20.48986 | 10580 ft | 310 kts | 188° |
| 2026-05-07 16:14 | 52.22105 | 20.48643 | 10837 ft | 328 kts | 188° |
| 2026-05-07 16:14 | 52.19807 | 20.48291 | 11439 ft | 334 kts | 188° |
| 2026-05-07 16:14 | 52.17492 | 20.47939 | 12227 ft | 335 kts | 188° |
| 2026-05-07 16:15 | 52.15166 | 20.47589 | 13044 ft | 336 kts | 188° |
| 2026-05-07 16:15 | 52.12830 | 20.47236 | 13862 ft | 338 kts | 188° |
| 2026-05-07 16:15 | 52.10477 | 20.46878 | 14547 ft | 341 kts | 188° |
| 2026-05-07 16:15 | 52.08093 | 20.46514 | 15230 ft | 345 kts | 188° |
| 2026-05-07 16:16 | 52.05725 | 20.46151 | 15924 ft | 349 kts | 188° |
| 2026-05-07 16:16 | 52.03302 | 20.45779 | 16604 ft | 353 kts | 188° |
| 2026-05-07 16:16 | 52.00835 | 20.45400 | 17299 ft | 356 kts | 188° |
| 2026-05-07 16:16 | 51.98344 | 20.45018 | 17985 ft | 360 kts | 188° |
| 2026-05-07 16:17 | 51.95833 | 20.44633 | 18616 ft | 363 kts | 188° |
| 2026-05-07 16:17 | 51.93315 | 20.44247 | 19252 ft | 365 kts | 188° |
| 2026-05-07 16:17 | 51.90770 | 20.43858 | 19903 ft | 367 kts | 188° |
| 2026-05-07 16:17 | 51.88225 | 20.43470 | 20527 ft | 368 kts | 188° |
| 2026-05-07 16:18 | 51.85661 | 20.43078 | 21135 ft | 371 kts | 188° |
| 2026-05-07 16:18 | 51.83085 | 20.42685 | 21731 ft | 373 kts | 188° |
| 2026-05-07 16:18 | 51.80484 | 20.42289 | 22307 ft | 375 kts | 188° |
| 2026-05-07 16:18 | 51.77919 | 20.41898 | 22847 ft | 378 kts | 188° |
| 2026-05-07 16:19 | 51.75290 | 20.41498 | 23369 ft | 380 kts | 188° |
| 2026-05-07 16:19 | 51.72651 | 20.41098 | 23834 ft | 382 kts | 188° |
| 2026-05-07 16:19 | 51.69994 | 20.40695 | 24287 ft | 384 kts | 188° |
| 2026-05-07 16:19 | 51.67330 | 20.40292 | 24722 ft | 385 kts | 188° |
| 2026-05-07 16:20 | 51.64652 | 20.39886 | 25138 ft | 388 kts | 188° |
| 2026-05-07 16:20 | 51.61955 | 20.39479 | 25541 ft | 390 kts | 188° |
| 2026-05-07 16:20 | 51.59247 | 20.39070 | 25942 ft | 392 kts | 188° |
| 2026-05-07 16:20 | 51.56531 | 20.38661 | 26330 ft | 394 kts | 188° |
| 2026-05-07 16:21 | 51.53795 | 20.38249 | 26716 ft | 396 kts | 188° |
| 2026-05-07 16:21 | 51.51043 | 20.37835 | 27090 ft | 398 kts | 188° |
| 2026-05-07 16:21 | 51.48281 | 20.37420 | 27454 ft | 400 kts | 188° |
| 2026-05-07 16:21 | 51.45500 | 20.37003 | 27810 ft | 402 kts | 188° |
| 2026-05-07 16:22 | 51.42705 | 20.36584 | 28155 ft | 404 kts | 188° |
| 2026-05-07 16:22 | 51.39899 | 20.36137 | 28503 ft | 405 kts | 190° |
| 2026-05-07 16:22 | 51.37139 | 20.35246 | 28816 ft | 405 kts | 198° |
| 2026-05-07 16:22 | 51.34459 | 20.33843 | 29149 ft | 407 kts | 200° |
| 2026-05-07 16:23 | 51.31769 | 20.32407 | 29467 ft | 409 kts | 200° |
| 2026-05-07 16:23 | 51.29063 | 20.30971 | 29778 ft | 410 kts | 199° |
| 2026-05-07 16:23 | 51.26344 | 20.29541 | 30128 ft | 411 kts | 199° |
| 2026-05-07 16:23 | 51.23632 | 20.28127 | 30527 ft | 409 kts | 199° |
| 2026-05-07 16:24 | 51.20929 | 20.26724 | 30917 ft | 408 kts | 199° |
| 2026-05-07 16:24 | 51.18261 | 20.25344 | 31261 ft | 407 kts | 199° |
| 2026-05-07 16:24 | 51.15564 | 20.23951 | 31585 ft | 407 kts | 199° |
| 2026-05-07 16:24 | 51.12866 | 20.22561 | 31943 ft | 407 kts | 200° |
| 2026-05-07 16:25 | 51.10174 | 20.21175 | 32303 ft | 406 kts | 200° |
| 2026-05-07 16:25 | 51.07493 | 20.19796 | 32647 ft | 405 kts | 200° |
| 2026-05-07 16:25 | 51.04811 | 20.18418 | 32975 ft | 405 kts | 200° |
| 2026-05-07 16:25 | 51.02128 | 20.17041 | 33332 ft | 404 kts | 200° |
| 2026-05-07 16:26 | 50.99454 | 20.15670 | 33760 ft | 403 kts | 200° |
| 2026-05-07 16:26 | 50.96782 | 20.14301 | 34167 ft | 403 kts | 200° |
| 2026-05-07 16:26 | 50.94117 | 20.12938 | 34443 ft | 404 kts | 200° |
| 2026-05-07 16:26 | 50.92342 | 20.12031 | 34591 ft | 404 kts | 200° |
| 2026-05-07 16:27 | 50.88763 | 20.10214 | 34942 ft | 403 kts | 200° |
| 2026-05-07 16:27 | 50.86083 | 20.08862 | 35192 ft | 403 kts | 200° |
| 2026-05-07 16:27 | 50.83411 | 20.07517 | 35423 ft | 404 kts | 200° |
| 2026-05-07 16:27 | 50.80737 | 20.06171 | 35721 ft | 402 kts | 200° |
| 2026-05-07 16:28 | 50.78105 | 20.04841 | 35864 ft | 402 kts | 200° |
| 2026-05-07 16:28 | 50.72742 | 20.02119 | 35955 ft | 400 kts | 200° |
| 2026-05-07 16:29 | 50.67520 | 19.99472 | 35952 ft | 394 kts | 200° |
| 2026-05-07 16:29 | 50.62305 | 19.96834 | 35949 ft | 392 kts | 200° |
| 2026-05-07 16:30 | 50.57119 | 19.94218 | 35953 ft | 390 kts | 200° |
| 2026-05-07 16:30 | 50.51957 | 19.91620 | 35959 ft | 389 kts | 200° |
| 2026-05-07 16:31 | 50.46792 | 19.89026 | 35966 ft | 390 kts | 200° |
| 2026-05-07 16:31 | 50.41603 | 19.86426 | 35964 ft | 393 kts | 200° |
| 2026-05-07 16:32 | 50.36373 | 19.83812 | 35962 ft | 395 kts | 200° |
| 2026-05-07 16:32 | 50.31405 | 19.81336 | 35971 ft | 398 kts | 201° |
| 2026-05-07 16:33 | 50.26107 | 19.78700 | 35964 ft | 400 kts | 201° |
| 2026-05-07 16:33 | 50.20785 | 19.76059 | 35968 ft | 402 kts | 201° |
| 2026-05-07 16:34 | 50.15448 | 19.73417 | 35968 ft | 402 kts | 201° |
| 2026-05-07 16:34 | 50.10147 | 19.70800 | 35962 ft | 402 kts | 201° |
| 2026-05-07 16:35 | 50.04797 | 19.68164 | 35962 ft | 401 kts | 201° |
| 2026-05-07 16:35 | 49.99478 | 19.65549 | 35961 ft | 400 kts | 201° |
| 2026-05-07 16:36 | 49.94210 | 19.62964 | 35959 ft | 399 kts | 201° |
| 2026-05-07 16:36 | 49.88924 | 19.60377 | 35963 ft | 397 kts | 201° |
| 2026-05-07 16:37 | 49.83659 | 19.57806 | 35957 ft | 396 kts | 201° |
| 2026-05-07 16:37 | 49.78405 | 19.55245 | 35963 ft | 395 kts | 201° |
| 2026-05-07 16:38 | 49.73151 | 19.52691 | 35961 ft | 395 kts | 201° |
| 2026-05-07 16:38 | 49.67932 | 19.50158 | 35969 ft | 394 kts | 201° |
| 2026-05-07 16:39 | 49.62647 | 19.47839 | 35962 ft | 398 kts | 193° |
| 2026-05-07 16:39 | 49.57050 | 19.47559 | 35974 ft | 409 kts | 179° |
| 2026-05-07 16:40 | 49.51381 | 19.48644 | 35977 ft | 412 kts | 178° |
| 2026-05-07 16:40 | 49.48536 | 19.49218 | 36174 ft | 411 kts | 178° |
| 2026-05-07 16:40 | 49.45697 | 19.49783 | 36428 ft | 411 kts | 178° |
| 2026-05-07 16:40 | 49.42858 | 19.50335 | 36675 ft | 411 kts | 178° |
| 2026-05-07 16:41 | 49.40019 | 19.50878 | 36941 ft | 410 kts | 178° |
| 2026-05-07 16:41 | 49.37187 | 19.51413 | 37204 ft | 408 kts | 178° |
| 2026-05-07 16:41 | 49.34407 | 19.51935 | 37455 ft | 407 kts | 178° |
| 2026-05-07 16:41 | 49.31568 | 19.52465 | 37733 ft | 406 kts | 178° |
| 2026-05-07 16:42 | 49.28835 | 19.52974 | 38001 ft | 405 kts | 178° |
| 2026-05-07 16:42 | 49.26043 | 19.53493 | 38173 ft | 406 kts | 178° |
| 2026-05-07 16:42 | 49.23229 | 19.54014 | 38331 ft | 408 kts | 178° |
| 2026-05-07 16:42 | 49.20407 | 19.54537 | 38475 ft | 409 kts | 178° |
| 2026-05-07 16:43 | 49.17575 | 19.55062 | 38632 ft | 410 kts | 178° |
| 2026-05-07 16:43 | 49.14734 | 19.55588 | 38769 ft | 411 kts | 178° |
| 2026-05-07 16:43 | 49.11886 | 19.56115 | 38888 ft | 412 kts | 178° |
| 2026-05-07 16:44 | 49.06169 | 19.57171 | 38994 ft | 416 kts | 178° |
| 2026-05-07 16:44 | 49.05200 | 19.57350 | 38993 ft | 417 kts | 178° |
| 2026-05-07 16:45 | 48.99625 | 19.58376 | 39001 ft | 423 kts | 178° |
| 2026-05-07 16:45 | 48.93742 | 19.59460 | 38996 ft | 427 kts | 177° |
| 2026-05-07 16:46 | 48.88801 | 19.60367 | 39001 ft | 432 kts | 178° |
| 2026-05-07 16:46 | 48.82814 | 19.61464 | 38995 ft | 433 kts | 178° |
| 2026-05-07 16:47 | 48.76882 | 19.62545 | 38982 ft | 424 kts | 178° |
| 2026-05-07 16:47 | 48.71021 | 19.63274 | 38994 ft | 421 kts | 180° |
| 2026-05-07 16:48 | 48.65178 | 19.63854 | 39000 ft | 421 kts | 180° |
| 2026-05-07 16:48 | 48.59326 | 19.64462 | 38998 ft | 421 kts | 180° |
| 2026-05-07 16:49 | 48.53506 | 19.65096 | 38991 ft | 423 kts | 180° |
| 2026-05-07 16:49 | 48.47633 | 19.65748 | 38987 ft | 423 kts | 180° |
| 2026-05-07 16:50 | 48.41753 | 19.66399 | 39001 ft | 424 kts | 180° |
| 2026-05-07 16:50 | 48.35838 | 19.67053 | 38993 ft | 426 kts | 180° |
| 2026-05-07 16:51 | 48.29914 | 19.67705 | 38993 ft | 428 kts | 180° |
| 2026-05-07 16:51 | 48.23946 | 19.68361 | 38991 ft | 430 kts | 180° |
| 2026-05-07 16:52 | 48.17970 | 19.69017 | 38995 ft | 431 kts | 180° |
| 2026-05-07 16:52 | 48.12020 | 19.69668 | 38997 ft | 431 kts | 180° |
| 2026-05-07 16:53 | 48.06027 | 19.70322 | 38989 ft | 431 kts | 180° |
| 2026-05-07 16:53 | 48.00031 | 19.70976 | 38990 ft | 431 kts | 180° |
| 2026-05-07 16:54 | 47.94063 | 19.71624 | 38990 ft | 429 kts | 180° |
| 2026-05-07 16:54 | 47.88098 | 19.72271 | 38998 ft | 428 kts | 180° |
| 2026-05-07 16:55 | 47.82171 | 19.72963 | 38991 ft | 429 kts | 178° |
| 2026-05-07 16:55 | 47.76256 | 19.74209 | 38998 ft | 429 kts | 175° |
| 2026-05-07 16:56 | 47.70362 | 19.75627 | 38995 ft | 428 kts | 175° |
| 2026-05-07 16:56 | 47.61587 | 19.77669 | 38993 ft | 427 kts | 176° |
| 2026-05-07 16:57 | 47.55716 | 19.78993 | 39002 ft | 427 kts | 176° |
| 2026-05-07 16:57 | 47.49831 | 19.80308 | 38989 ft | 428 kts | 176° |
| 2026-05-07 16:58 | 47.43936 | 19.81624 | 38990 ft | 428 kts | 176° |
| 2026-05-07 16:58 | 47.38038 | 19.82937 | 38998 ft | 429 kts | 176° |
| 2026-05-07 16:59 | 47.32128 | 19.84251 | 39001 ft | 430 kts | 176° |
| 2026-05-07 16:59 | 47.26213 | 19.85563 | 38996 ft | 431 kts | 176° |
| 2026-05-07 17:00 | 47.20278 | 19.86877 | 39003 ft | 431 kts | 176° |
| 2026-05-07 17:00 | 47.14330 | 19.88190 | 38996 ft | 432 kts | 176° |
| 2026-05-07 17:01 | 47.08373 | 19.89503 | 38996 ft | 432 kts | 176° |
| 2026-05-07 17:01 | 47.02415 | 19.90813 | 38999 ft | 432 kts | 176° |
| 2026-05-07 17:02 | 46.96462 | 19.92119 | 38989 ft | 432 kts | 176° |
| 2026-05-07 17:02 | 46.90515 | 19.93421 | 38987 ft | 432 kts | 176° |
| 2026-05-07 17:03 | 46.84580 | 19.94717 | 38994 ft | 431 kts | 176° |
| 2026-05-07 17:03 | 46.78647 | 19.96010 | 38998 ft | 430 kts | 176° |
| 2026-05-07 17:04 | 46.72732 | 19.97295 | 39000 ft | 430 kts | 176° |
| 2026-05-07 17:04 | 46.66856 | 19.98569 | 39000 ft | 429 kts | 176° |
| 2026-05-07 17:05 | 46.60950 | 19.99847 | 39002 ft | 429 kts | 176° |
| 2026-05-07 17:05 | 46.55043 | 20.01123 | 39005 ft | 428 kts | 176° |
| 2026-05-07 17:06 | 46.49139 | 20.02395 | 39001 ft | 429 kts | 176° |
| 2026-05-07 17:06 | 46.43230 | 20.03665 | 39004 ft | 429 kts | 176° |
| 2026-05-07 17:07 | 46.37360 | 20.04924 | 39001 ft | 429 kts | 176° |
| 2026-05-07 17:07 | 46.31447 | 20.06190 | 38999 ft | 430 kts | 176° |
| 2026-05-07 17:08 | 46.25516 | 20.07457 | 39000 ft | 430 kts | 176° |
| 2026-05-07 17:08 | 46.19581 | 20.08723 | 38997 ft | 431 kts | 176° |
| 2026-05-07 17:09 | 46.13703 | 20.10548 | 39004 ft | 437 kts | 167° |
| 2026-05-07 17:09 | 46.07934 | 20.13382 | 38995 ft | 438 kts | 166° |
| 2026-05-07 17:10 | 46.02206 | 20.16245 | 38993 ft | 438 kts | 166° |
| 2026-05-07 17:10 | 45.96433 | 20.19077 | 38993 ft | 438 kts | 166° |
| 2026-05-07 17:11 | 45.90644 | 20.21879 | 38993 ft | 438 kts | 166° |
| 2026-05-07 17:11 | 45.84854 | 20.24667 | 38991 ft | 438 kts | 166° |
| 2026-05-07 17:12 | 45.79067 | 20.27447 | 38988 ft | 438 kts | 166° |
| 2026-05-07 17:12 | 45.73283 | 20.30220 | 38990 ft | 438 kts | 166° |
| 2026-05-07 17:13 | 45.67501 | 20.32987 | 38991 ft | 438 kts | 166° |
| 2026-05-07 17:13 | 45.61719 | 20.35748 | 38991 ft | 438 kts | 166° |
| 2026-05-07 17:14 | 45.55938 | 20.38502 | 38989 ft | 438 kts | 166° |
| 2026-05-07 17:14 | 45.50153 | 20.41252 | 38990 ft | 438 kts | 166° |
| 2026-05-07 17:15 | 45.44369 | 20.43996 | 38988 ft | 438 kts | 166° |
| 2026-05-07 17:15 | 45.38626 | 20.46715 | 38994 ft | 438 kts | 166° |
| 2026-05-07 17:16 | 45.32840 | 20.49448 | 38991 ft | 438 kts | 166° |
| 2026-05-07 17:16 | 45.27047 | 20.52178 | 38991 ft | 438 kts | 166° |
| 2026-05-07 17:17 | 45.21253 | 20.54903 | 38995 ft | 439 kts | 166° |
| 2026-05-07 17:17 | 45.15453 | 20.57625 | 38996 ft | 439 kts | 166° |
| 2026-05-07 17:18 | 45.09641 | 20.60347 | 39001 ft | 439 kts | 166° |
| 2026-05-07 17:18 | 45.03833 | 20.63061 | 39002 ft | 440 kts | 166° |
| 2026-05-07 17:19 | 44.98860 | 20.65381 | 39002 ft | 440 kts | 166° |
| 2026-05-07 17:19 | 44.93605 | 20.67827 | 39010 ft | 441 kts | 166° |
| 2026-05-07 17:20 | 44.87921 | 20.70468 | 39018 ft | 441 kts | 166° |
| 2026-05-07 17:20 | 44.82077 | 20.73178 | 39018 ft | 442 kts | 166° |
| 2026-05-07 17:21 | 44.76232 | 20.75883 | 39018 ft | 442 kts | 166° |
| 2026-05-07 17:21 | 44.70383 | 20.78618 | 39023 ft | 443 kts | 164° |
| 2026-05-07 17:22 | 44.64577 | 20.81667 | 39021 ft | 445 kts | 163° |
| 2026-05-07 17:22 | 44.58838 | 20.84771 | 39027 ft | 445 kts | 163° |
| 2026-05-07 17:23 | 44.53051 | 20.87862 | 39030 ft | 445 kts | 163° |
| 2026-05-07 17:23 | 44.47252 | 20.90923 | 39024 ft | 445 kts | 163° |
| 2026-05-07 17:24 | 44.41442 | 20.93973 | 39028 ft | 446 kts | 163° |
| 2026-05-07 17:24 | 44.35636 | 20.97013 | 39027 ft | 446 kts | 163° |
| 2026-05-07 17:25 | 44.29821 | 21.00053 | 39028 ft | 446 kts | 163° |
| 2026-05-07 17:25 | 44.24012 | 21.03083 | 39027 ft | 446 kts | 163° |
| 2026-05-07 17:26 | 44.18220 | 21.06099 | 39027 ft | 445 kts | 163° |
| 2026-05-07 17:26 | 44.12394 | 21.09126 | 39029 ft | 445 kts | 163° |
| 2026-05-07 17:27 | 44.06581 | 21.12139 | 39027 ft | 445 kts | 163° |
| 2026-05-07 17:27 | 44.00780 | 21.15141 | 39025 ft | 445 kts | 163° |
| 2026-05-07 17:28 | 43.94961 | 21.18145 | 39028 ft | 445 kts | 163° |
| 2026-05-07 17:28 | 43.90126 | 21.20637 | 39030 ft | 445 kts | 163° |
| 2026-05-07 17:29 | 43.83365 | 21.24113 | 39030 ft | 446 kts | 164° |
| 2026-05-07 17:29 | 43.78493 | 21.26612 | 39025 ft | 446 kts | 164° |
| 2026-05-07 17:30 | 43.71730 | 21.30076 | 39028 ft | 446 kts | 164° |
| 2026-05-07 17:30 | 43.66857 | 21.32567 | 39028 ft | 446 kts | 164° |
| 2026-05-07 17:31 | 43.61034 | 21.35536 | 39031 ft | 446 kts | 164° |
| 2026-05-07 17:31 | 43.55230 | 21.38490 | 39032 ft | 447 kts | 164° |
| 2026-05-07 17:32 | 43.49385 | 21.41459 | 39033 ft | 448 kts | 164° |
| 2026-05-07 17:32 | 43.43530 | 21.44427 | 39033 ft | 449 kts | 164° |
| 2026-05-07 17:33 | 43.37654 | 21.47399 | 39035 ft | 450 kts | 164° |
| 2026-05-07 17:33 | 43.31806 | 21.50352 | 39044 ft | 450 kts | 164° |
| 2026-05-07 17:34 | 43.25934 | 21.53311 | 39045 ft | 449 kts | 165° |
| 2026-05-07 17:34 | 43.20062 | 21.56263 | 39050 ft | 449 kts | 165° |
| 2026-05-07 17:35 | 43.14193 | 21.59208 | 39050 ft | 449 kts | 165° |
| 2026-05-07 17:35 | 43.08320 | 21.62149 | 39057 ft | 449 kts | 165° |
| 2026-05-07 17:36 | 43.02449 | 21.65083 | 39065 ft | 449 kts | 165° |
| 2026-05-07 17:36 | 42.96562 | 21.68019 | 39064 ft | 450 kts | 165° |
| 2026-05-07 17:37 | 42.90657 | 21.70788 | 39075 ft | 448 kts | 167° |
| 2026-05-07 17:37 | 42.84710 | 21.73370 | 39071 ft | 448 kts | 169° |
| 2026-05-07 17:38 | 42.78805 | 21.75936 | 39078 ft | 448 kts | 169° |
| 2026-05-07 17:38 | 42.72857 | 21.78544 | 39089 ft | 450 kts | 169° |
| 2026-05-07 17:39 | 42.66878 | 21.81174 | 39089 ft | 452 kts | 169° |
| 2026-05-07 17:39 | 42.60873 | 21.83813 | 39093 ft | 454 kts | 168° |
| 2026-05-07 17:40 | 42.54855 | 21.86453 | 39095 ft | 454 kts | 169° |
| 2026-05-07 17:40 | 42.48840 | 21.89086 | 39101 ft | 455 kts | 169° |
| 2026-05-07 17:41 | 42.42798 | 21.91725 | 39110 ft | 456 kts | 169° |
| 2026-05-07 17:41 | 42.36760 | 21.94356 | 39109 ft | 456 kts | 169° |
| 2026-05-07 17:42 | 42.30750 | 21.96970 | 39117 ft | 457 kts | 169° |
| 2026-05-07 17:42 | 42.24685 | 21.99603 | 39105 ft | 458 kts | 169° |
| 2026-05-07 17:43 | 42.18610 | 22.02235 | 39117 ft | 459 kts | 169° |
| 2026-05-07 17:43 | 42.12526 | 22.04866 | 39116 ft | 459 kts | 170° |
| 2026-05-07 17:44 | 42.06414 | 22.07504 | 39115 ft | 459 kts | 170° |
| 2026-05-07 17:44 | 42.00333 | 22.10242 | 39115 ft | 463 kts | 168° |
| 2026-05-07 17:45 | 41.94264 | 22.13187 | 39108 ft | 464 kts | 168° |
| 2026-05-07 17:45 | 41.88219 | 22.16127 | 39113 ft | 466 kts | 168° |
| 2026-05-07 17:46 | 41.82102 | 22.19063 | 39104 ft | 467 kts | 169° |
| 2026-05-07 17:46 | 41.75972 | 22.21984 | 39110 ft | 469 kts | 169° |
| 2026-05-07 17:47 | 41.69799 | 22.24916 | 39111 ft | 472 kts | 169° |
| 2026-05-07 17:47 | 41.63580 | 22.27865 | 39108 ft | 476 kts | 170° |
| 2026-05-07 17:48 | 41.57315 | 22.30832 | 39119 ft | 479 kts | 170° |
| 2026-05-07 17:48 | 41.51003 | 22.33815 | 39098 ft | 482 kts | 170° |
| 2026-05-07 17:49 | 41.44680 | 22.36800 | 39111 ft | 481 kts | 170° |
| 2026-05-07 17:49 | 41.38353 | 22.39779 | 39117 ft | 485 kts | 171° |
| 2026-05-07 17:50 | 41.31966 | 22.42776 | 39114 ft | 488 kts | 171° |
| 2026-05-07 17:50 | 41.25573 | 22.45772 | 39114 ft | 491 kts | 171° |
| 2026-05-07 17:51 | 41.19110 | 22.48798 | 39114 ft | 494 kts | 171° |
| 2026-05-07 17:51 | 41.12604 | 22.51837 | 39111 ft | 496 kts | 171° |
| 2026-05-07 17:52 | 41.06119 | 22.55162 | 39119 ft | 502 kts | 167° |
| 2026-05-07 17:52 | 40.99647 | 22.58713 | 39100 ft | 505 kts | 167° |
| 2026-05-07 17:53 | 40.93146 | 22.62259 | 39100 ft | 504 kts | 167° |
| 2026-05-07 17:53 | 40.86655 | 22.65742 | 39099 ft | 504 kts | 168° |
| 2026-05-07 17:54 | 40.80138 | 22.69207 | 39094 ft | 503 kts | 168° |
| 2026-05-07 17:54 | 40.73640 | 22.72652 | 39092 ft | 503 kts | 168° |
| 2026-05-07 17:55 | 40.67189 | 22.76067 | 39092 ft | 503 kts | 167° |
| 2026-05-07 17:55 | 40.60697 | 22.79499 | 39091 ft | 503 kts | 167° |
| 2026-05-07 17:56 | 40.54201 | 22.82925 | 39108 ft | 502 kts | 167° |
| 2026-05-07 17:56 | 40.47709 | 22.86343 | 39101 ft | 503 kts | 167° |
| 2026-05-07 17:57 | 40.42304 | 22.89182 | 39104 ft | 503 kts | 167° |
| 2026-05-07 17:57 | 40.34692 | 22.93172 | 39100 ft | 504 kts | 167° |
| 2026-05-07 17:58 | 40.28169 | 22.96585 | 39098 ft | 505 kts | 167° |
| 2026-05-07 17:58 | 40.21641 | 22.99993 | 39100 ft | 505 kts | 167° |
| 2026-05-07 17:59 | 40.15155 | 23.03371 | 39097 ft | 506 kts | 167° |
| 2026-05-07 17:59 | 40.11862 | 23.05081 | 38870 ft | 512 kts | 167° |
| 2026-05-07 17:59 | 40.08547 | 23.06802 | 38606 ft | 511 kts | 167° |
| 2026-05-07 18:00 | 40.05252 | 23.08514 | 38327 ft | 509 kts | 167° |
| 2026-05-07 18:00 | 40.01965 | 23.10223 | 37945 ft | 507 kts | 167° |
| 2026-05-07 18:00 | 39.98691 | 23.11922 | 37411 ft | 505 kts | 167° |
| 2026-05-07 18:00 | 39.95433 | 23.13610 | 36880 ft | 504 kts | 167° |
| 2026-05-07 18:01 | 39.92167 | 23.15298 | 36312 ft | 504 kts | 167° |
| 2026-05-07 18:01 | 39.88907 | 23.16980 | 35743 ft | 504 kts | 167° |
| 2026-05-07 18:01 | 39.85644 | 23.18662 | 35161 ft | 504 kts | 167° |
| 2026-05-07 18:01 | 39.82387 | 23.20339 | 34534 ft | 505 kts | 167° |
| 2026-05-07 18:02 | 39.75788 | 23.23726 | 33120 ft | 511 kts | 166° |
| 2026-05-07 18:02 | 39.72489 | 23.25425 | 32426 ft | 511 kts | 165° |
| 2026-05-07 18:02 | 39.69180 | 23.27127 | 31714 ft | 510 kts | 165° |
| 2026-05-07 18:03 | 39.65887 | 23.28818 | 31138 ft | 505 kts | 164° |
| 2026-05-07 18:03 | 39.62661 | 23.30478 | 30628 ft | 492 kts | 163° |
| 2026-05-07 18:03 | 39.59563 | 23.32070 | 30131 ft | 479 kts | 163° |
| 2026-05-07 18:03 | 39.56513 | 23.33634 | 29577 ft | 466 kts | 163° |
| 2026-05-07 18:04 | 39.53518 | 23.35163 | 29092 ft | 459 kts | 163° |
| 2026-05-07 18:04 | 39.50555 | 23.36671 | 28576 ft | 454 kts | 163° |
| 2026-05-07 18:04 | 39.47631 | 23.38156 | 28072 ft | 450 kts | 163° |
| 2026-05-07 18:04 | 39.44732 | 23.39630 | 27566 ft | 445 kts | 163° |
| 2026-05-07 18:05 | 39.41861 | 23.41088 | 27067 ft | 441 kts | 163° |
| 2026-05-07 18:05 | 39.39013 | 23.42535 | 26579 ft | 437 kts | 163° |
| 2026-05-07 18:05 | 39.36198 | 23.43964 | 26079 ft | 433 kts | 162° |
| 2026-05-07 18:05 | 39.33404 | 23.45381 | 25605 ft | 430 kts | 162° |
| 2026-05-07 18:06 | 39.30630 | 23.46788 | 25122 ft | 426 kts | 162° |
| 2026-05-07 18:06 | 39.27885 | 23.48178 | 24641 ft | 423 kts | 162° |
| 2026-05-07 18:06 | 39.25161 | 23.49557 | 24166 ft | 420 kts | 162° |
| 2026-05-07 18:06 | 39.22452 | 23.50926 | 23667 ft | 418 kts | 162° |
| 2026-05-07 18:07 | 39.19745 | 23.52294 | 23123 ft | 414 kts | 162° |
| 2026-05-07 18:07 | 39.17072 | 23.53644 | 22607 ft | 411 kts | 162° |
| 2026-05-07 18:07 | 39.14424 | 23.54981 | 22114 ft | 407 kts | 162° |
| 2026-05-07 18:07 | 39.11803 | 23.56303 | 21643 ft | 403 kts | 162° |
| 2026-05-07 18:08 | 39.09196 | 23.57616 | 21172 ft | 399 kts | 162° |
| 2026-05-07 18:08 | 39.06625 | 23.58910 | 20710 ft | 396 kts | 162° |
| 2026-05-07 18:08 | 39.04070 | 23.60195 | 20257 ft | 393 kts | 162° |
| 2026-05-07 18:08 | 39.01531 | 23.61471 | 19806 ft | 390 kts | 162° |
| 2026-05-07 18:09 | 38.99009 | 23.62738 | 19357 ft | 387 kts | 162° |
| 2026-05-07 18:09 | 38.96508 | 23.63993 | 18914 ft | 385 kts | 162° |
| 2026-05-07 18:09 | 38.93992 | 23.65092 | 18450 ft | 380 kts | 170° |
| 2026-05-07 18:09 | 38.91408 | 23.65649 | 17940 ft | 374 kts | 177° |
| 2026-05-07 18:10 | 38.88825 | 23.66024 | 17427 ft | 372 kts | 178° |
| 2026-05-07 18:10 | 38.86258 | 23.66372 | 16921 ft | 370 kts | 178° |
| 2026-05-07 18:10 | 38.83701 | 23.66717 | 16454 ft | 368 kts | 177° |
| 2026-05-07 18:10 | 38.81174 | 23.67067 | 16024 ft | 364 kts | 177° |
| 2026-05-07 18:11 | 38.78669 | 23.67421 | 15601 ft | 360 kts | 177° |
| 2026-05-07 18:11 | 38.77020 | 23.67658 | 15331 ft | 358 kts | 176° |
| 2026-05-07 18:11 | 38.73760 | 23.68131 | 14789 ft | 354 kts | 176° |
| 2026-05-07 18:11 | 38.71322 | 23.68486 | 14395 ft | 351 kts | 176° |
| 2026-05-07 18:12 | 38.68899 | 23.68841 | 13993 ft | 349 kts | 176° |
| 2026-05-07 18:12 | 38.66468 | 23.69197 | 13550 ft | 346 kts | 176° |
| 2026-05-07 18:12 | 38.64122 | 23.69544 | 13114 ft | 343 kts | 174° |
| 2026-05-07 18:12 | 38.61821 | 23.70352 | 12730 ft | 343 kts | 159° |
| 2026-05-07 18:13 | 38.59727 | 23.71769 | 12442 ft | 338 kts | 152° |
| 2026-05-07 18:13 | 38.57720 | 23.73310 | 12188 ft | 331 kts | 150° |
| 2026-05-07 18:13 | 38.55772 | 23.74830 | 11932 ft | 325 kts | 150° |
| 2026-05-07 18:13 | 38.53884 | 23.76301 | 11682 ft | 319 kts | 150° |
| 2026-05-07 18:14 | 38.51978 | 23.77779 | 11388 ft | 316 kts | 151° |
| 2026-05-07 18:14 | 38.50122 | 23.79208 | 11050 ft | 314 kts | 151° |
| 2026-05-07 18:14 | 38.48253 | 23.80641 | 10726 ft | 312 kts | 151° |
| 2026-05-07 18:14 | 38.46393 | 23.82064 | 10384 ft | 311 kts | 151° |
| 2026-05-07 18:15 | 38.44542 | 23.83477 | 10056 ft | 309 kts | 151° |
| 2026-05-07 18:15 | 38.42693 | 23.84886 | 9687 ft | 308 kts | 151° |
| 2026-05-07 18:15 | 38.40856 | 23.86284 | 9336 ft | 306 kts | 151° |
| 2026-05-07 18:15 | 38.39041 | 23.87665 | 8996 ft | 302 kts | 151° |
| 2026-05-07 18:16 | 38.37261 | 23.89019 | 8665 ft | 293 kts | 151° |
| 2026-05-07 18:16 | 38.36111 | 23.89893 | 8446 ft | 288 kts | 151° |
| 2026-05-07 18:16 | 38.34406 | 23.91188 | 8162 ft | 286 kts | 151° |
| 2026-05-07 18:16 | 38.32695 | 23.92486 | 7872 ft | 286 kts | 151° |
| 2026-05-07 18:17 | 38.30979 | 23.93786 | 7555 ft | 287 kts | 151° |
| 2026-05-07 18:17 | 38.29264 | 23.95086 | 7254 ft | 287 kts | 151° |
| 2026-05-07 18:17 | 38.27550 | 23.96383 | 6940 ft | 286 kts | 152° |
| 2026-05-07 18:17 | 38.25850 | 23.97670 | 6638 ft | 284 kts | 151° |
| 2026-05-07 18:18 | 38.24154 | 23.98954 | 6321 ft | 282 kts | 151° |
| 2026-05-07 18:18 | 38.22473 | 24.00227 | 6011 ft | 280 kts | 151° |
| 2026-05-07 18:18 | 38.20805 | 24.01499 | 5705 ft | 279 kts | 147° |
| 2026-05-07 18:18 | 38.19449 | 24.03250 | 5398 ft | 279 kts | 124° |
| 2026-05-07 18:19 | 38.18467 | 24.05344 | 5216 ft | 270 kts | 121° |
| 2026-05-07 18:19 | 38.17574 | 24.07392 | 5021 ft | 259 kts | 120° |
| 2026-05-07 18:19 | 38.16654 | 24.09289 | 4817 ft | 247 kts | 136° |
| 2026-05-07 18:19 | 38.15210 | 24.10260 | 4608 ft | 231 kts | 175° |
| 2026-05-07 18:20 | 38.13670 | 24.10132 | 4394 ft | 221 kts | 190° |
| 2026-05-07 18:20 | 38.12160 | 24.09787 | 4160 ft | 220 kts | 192° |
| 2026-05-07 18:20 | 38.10671 | 24.09385 | 3914 ft | 218 kts | 200° |
| 2026-05-07 18:20 | 38.09391 | 24.08381 | 3717 ft | 214 kts | 218° |
| 2026-05-07 18:21 | 38.08243 | 24.07245 | 3575 ft | 204 kts | 217° |
| 2026-05-07 18:21 | 38.07124 | 24.06169 | 3344 ft | 199 kts | 217° |
| 2026-05-07 18:21 | 38.06031 | 24.05124 | 3110 ft | 194 kts | 216° |
| 2026-05-07 18:21 | 38.04969 | 24.04111 | 2841 ft | 188 kts | 217° |
| 2026-05-07 18:22 | 38.03945 | 24.03136 | 2594 ft | 179 kts | 217° |
| 2026-05-07 18:22 | 38.03293 | 24.02513 | 2450 ft | 174 kts | 216° |
| 2026-05-07 18:22 | 38.02034 | 24.01312 | 2150 ft | 165 kts | 216° |
| 2026-05-07 18:22 | 38.01135 | 24.00454 | 1922 ft | 158 kts | 216° |
| 2026-05-07 18:23 | 38.00281 | 23.99638 | 1728 ft | 150 kts | 215° |
| 2026-05-07 18:23 | 37.99443 | 23.98840 | 1555 ft | 147 kts | 216° |
| 2026-05-07 18:23 | 37.98637 | 23.98071 | 1351 ft | 143 kts | 216° |
| 2026-05-07 18:23 | 37.97846 | 23.97316 | 1136 ft | 143 kts | 217° |
| 2026-05-07 18:24 | 37.97064 | 23.96569 | 934 ft | 140 kts | 218° |
| 2026-05-07 18:24 | 37.96297 | 23.95836 | 759 ft | 141 kts | 219° |
| 2026-05-07 18:24 | 37.95505 | 23.95084 | 538 ft | 141 kts | 219° |
| 2026-05-07 18:24 | 37.94722 | 23.94335 | 361 ft | 141 kts | 219° |
| 2026-05-07 18:25 | 37.93967 | 23.93617 | 293 ft | 116 kts | 217° |
| 2026-05-07 18:25 | 37.93496 | 23.93168 | 293 ft | 54 kts | 216° |
| 2026-05-07 18:25 | 37.93281 | 23.92966 | 288 ft | 34 kts | 217° |
| 2026-05-07 18:25 | 37.93106 | 23.92851 | 294 ft | 27 kts | 195° |
| 2026-05-07 18:26 | 37.92970 | 23.92823 | 299 ft | 11 kts | 179° |
| 2026-05-07 18:26 | 37.92928 | 23.92886 | 299 ft | 10 kts | 87° |
| 2026-05-07 18:26 | 37.92973 | 23.92952 | 298 ft | 10 kts | 35° |
| 2026-05-07 18:26 | 37.93038 | 23.93014 | 299 ft | 13 kts | 37° |
| 2026-05-07 18:27 | 37.93125 | 23.93097 | 302 ft | 18 kts | 37° |
| 2026-05-07 18:27 | 37.93223 | 23.93191 | 298 ft | 16 kts | 36° |
| 2026-05-07 18:27 | 37.93307 | 23.93271 | 299 ft | 15 kts | 37° |
| 2026-05-07 18:27 | 37.93397 | 23.93357 | 298 ft | 14 kts | 38° |
| 2026-05-07 18:28 | 37.93427 | 23.93432 | 302 ft | 10 kts | 98° |
| 2026-05-07 18:28 | 37.93391 | 23.93506 | 300 ft | 11 kts | 126° |
| 2026-05-07 18:28 | 37.93333 | 23.93603 | 301 ft | 17 kts | 127° |
| 2026-05-07 18:28 | 37.93255 | 23.93733 | 300 ft | 19 kts | 127° |
| 2026-05-07 18:29 | 37.93177 | 23.93864 | 300 ft | 18 kts | 128° |
| 2026-05-07 18:29 | 37.93110 | 23.93974 | 302 ft | 10 kts | 127° |
| 2026-05-07 18:29 | 37.93099 | 23.94051 | 302 ft | 9 kts | 64° |
| 2026-05-07 18:29 | 37.93155 | 23.94112 | 301 ft | 13 kts | 36° |
| 2026-05-07 18:30 | 37.93243 | 23.94194 | 301 ft | 12 kts | 36° |
| 2026-05-07 18:30 | 37.93285 | 23.94269 | 302 ft | 11 kts | 91° |
| 2026-05-07 18:30 | 37.93246 | 23.94349 | 300 ft | 11 kts | 128° |
| 2026-05-07 18:30 | 37.93202 | 23.94406 | 302 ft | 8 kts | 159° |
| 2026-05-07 18:31 | 37.93157 | 23.94381 | 301 ft | 4 kts | 216° |
| 2026-05-07 18:31 | 37.93144 | 23.94369 | 301 ft | 0 kts | 216° |